Stockton, Missouri
Current Conditions -  °F | °C
As of 7:52 AM on Monday 24 Nov 2014 (Local Time) from KSGF Reporting Station
Clear Clear  
Wind Chill: 29°   Ceiling: Unl
Heat Index: 37°   Visibility: 10mi
Dew Point: 28°   Wind: 13mph
Humidity: 70%   Direction: 260°W
Pressure: 29.73"   Gusts: NA
Location:  37.7°N, 93.8°W
Report Text: KSGF 241352Z 26011KT 10SM CLR 03/M02 A2973 RMK AO2 SLP070 T00281022
Loading
Personal Weather Stations






























Interactive Weather Map New forecast layout! Learn more

10-Day Weather Forecast

Advertisements
Track Severe Weather on mobile